createdAt,value
2023-04-13T00:04:42.888Z,100.00
2023-04-13T00:09:47.162Z,100.00
2023-04-13T00:14:50.835Z,100.00
2023-04-13T00:19:57.621Z,100.00
2023-04-13T00:24:59.798Z,100.00
2023-04-13T00:30:01.638Z,100.00
2023-04-13T00:35:07.267Z,100.00
2023-04-13T00:40:09.584Z,100.00
2023-04-13T00:45:13.480Z,100.00
2023-04-13T00:50:18.409Z,100.00
2023-04-13T00:55:25.014Z,100.00
2023-04-13T01:00:29.009Z,100.00
2023-04-13T01:05:37.551Z,100.00
2023-04-13T01:10:52.382Z,100.00
2023-04-13T01:16:02.164Z,100.00
2023-04-13T01:21:04.653Z,100.00
2023-04-13T01:26:08.858Z,100.00
2023-04-13T01:31:13.904Z,100.00
2023-04-13T01:36:17.050Z,100.00
2023-04-13T01:41:19.784Z,100.00
2023-04-13T01:46:26.539Z,100.00
2023-04-13T01:51:42.767Z,100.00
2023-04-13T01:56:48.258Z,100.00
2023-04-13T02:01:49.965Z,100.00
2023-04-13T02:06:51.740Z,100.00
2023-04-13T02:11:59.888Z,100.00
2023-04-13T02:17:01.504Z,100.00
2023-04-13T02:22:03.169Z,100.00
2023-04-13T02:27:04.741Z,100.00
2023-04-13T02:32:07.904Z,100.00
2023-04-13T02:37:09.645Z,100.00
2023-04-13T02:42:12.097Z,100.00
2023-04-13T02:47:13.673Z,100.00
2023-04-13T02:52:15.728Z,100.00
2023-04-13T02:57:28.487Z,100.00
2023-04-13T03:02:31.851Z,100.00
2023-04-13T03:07:34.208Z,100.00
2023-04-13T03:12:36.880Z,100.00
2023-04-13T03:17:41.417Z,100.00
2023-04-13T03:22:45.306Z,100.00
2023-04-13T03:27:47.110Z,100.00
2023-04-13T03:32:52.489Z,100.00
2023-04-13T03:37:57.348Z,100.00
2023-04-13T03:43:06.511Z,100.00
2023-04-13T03:48:11.926Z,100.00
2023-04-13T03:53:13.632Z,100.00
2023-04-13T03:58:18.853Z,100.00
2023-04-13T04:03:22.314Z,100.00
2023-04-13T04:08:33.295Z,100.00
2023-04-13T04:13:39.128Z,100.00
2023-04-13T04:18:47.628Z,99.77
2023-04-13T04:23:52.273Z,100.00
2023-04-13T04:29:02.305Z,100.00
2023-04-13T04:34:05.875Z,99.52
2023-04-13T04:39:10.046Z,98.92
2023-04-13T04:44:24.991Z,98.94
2023-04-13T04:49:28.162Z,98.37
2023-04-13T04:54:30.557Z,98.06
2023-04-13T04:59:32.178Z,97.54
2023-04-13T05:04:38.873Z,97.69
2023-04-13T05:09:42.186Z,98.23
2023-04-13T05:14:48.595Z,96.86
2023-04-13T05:19:52.857Z,95.50
2023-04-13T05:24:58.548Z,95.07
2023-04-13T05:30:03.528Z,95.31
2023-04-13T05:35:06.119Z,94.37
2023-04-13T05:40:11.943Z,92.67
2023-04-13T05:45:16.771Z,92.89
2023-04-13T05:50:33.062Z,94.12
2023-04-13T05:55:35.425Z,92.59
2023-04-13T06:00:39.983Z,92.62
2023-04-13T06:05:46.895Z,91.80
2023-04-13T06:10:49.916Z,90.99
2023-04-13T06:15:52.846Z,91.24
2023-04-13T06:20:55.251Z,91.59
2023-04-13T06:25:57.679Z,91.58
2023-04-13T06:31:16.682Z,90.62
2023-04-13T06:36:21.077Z,89.37
2023-04-13T06:41:23.124Z,90.36
2023-04-13T06:46:25.807Z,89.15
2023-04-13T06:51:32.046Z,88.02
2023-04-13T06:56:34.449Z,86.28
2023-04-13T07:01:36.190Z,85.08
2023-04-13T07:06:38.838Z,84.38
2023-04-13T07:11:41.114Z,82.91
2023-04-13T07:16:42.782Z,84.10
2023-04-13T07:21:44.342Z,83.16
2023-04-13T07:26:46.365Z,82.94
2023-04-13T07:31:48.531Z,82.76
2023-04-13T07:36:50.498Z,80.47
2023-04-13T07:41:56.519Z,78.39
2023-04-13T07:47:14.054Z,75.59
2023-04-13T07:52:19.363Z,76.64
2023-04-13T07:57:22.349Z,73.60
2023-04-13T08:02:30.791Z,70.98
2023-04-13T08:07:34.014Z,71.36
2023-04-13T08:12:36.743Z,69.30
2023-04-13T08:17:38.706Z,70.80
2023-04-13T08:22:41.265Z,71.44
2023-04-13T08:27:43.253Z,74.82
2023-04-13T08:32:48.400Z,78.48
2023-04-13T08:37:50.486Z,79.42
2023-04-13T08:42:55.426Z,80.63
2023-04-13T08:47:58.829Z,80.13
2023-04-13T08:53:01.008Z,78.29
2023-04-13T08:58:04.154Z,78.59
2023-04-13T09:03:09.698Z,79.80
2023-04-13T09:08:19.699Z,79.45
2023-04-13T09:13:22.795Z,81.31
2023-04-13T09:18:24.559Z,86.03
2023-04-13T09:23:32.569Z,88.65
2023-04-13T09:28:34.301Z,90.95
2023-04-13T09:33:47.293Z,88.93
2023-04-13T09:38:56.110Z,88.66
2023-04-13T09:44:00.687Z,89.70
2023-04-13T09:49:25.576Z,90.29
2023-04-13T09:54:28.524Z,89.63
2023-04-13T09:59:32.504Z,88.53
2023-04-13T10:04:34.715Z,86.23
2023-04-13T10:09:36.708Z,85.22
2023-04-13T10:14:41.037Z,83.34
2023-04-13T10:19:48.388Z,83.13
2023-04-13T10:24:52.417Z,82.08
2023-04-13T10:29:55.144Z,78.86
2023-04-13T10:34:56.980Z,77.63
2023-04-13T10:40:10.384Z,74.07
2023-04-13T10:45:26.606Z,74.17
2023-04-13T10:50:28.375Z,70.32
2023-04-13T10:55:30.316Z,71.07
2023-04-13T11:00:45.624Z,71.31
2023-04-13T11:05:56.557Z,72.84
2023-04-13T11:10:58.084Z,70.90
2023-04-13T11:16:06.805Z,69.83
2023-04-13T11:21:16.397Z,69.01
2023-04-13T11:26:17.922Z,67.53
2023-04-13T11:31:19.453Z,67.31
2023-04-13T11:36:23.657Z,65.99
2023-04-13T11:41:27.231Z,64.18
2023-04-13T11:46:29.141Z,64.77
2023-04-13T11:51:32.441Z,66.61
2023-04-13T11:56:34.197Z,68.69
2023-04-13T12:01:36.693Z,68.20
2023-04-13T12:06:44.320Z,65.22
2023-04-13T12:11:50.275Z,61.27
2023-04-13T12:17:06.260Z,61.90
2023-04-13T12:22:20.468Z,59.86
2023-04-13T12:27:22.139Z,60.66
2023-04-13T12:32:24.900Z,61.94
2023-04-13T12:37:26.523Z,69.05
2023-04-13T12:42:28.400Z,73.84
2023-04-13T12:47:29.962Z,71.76
2023-04-13T12:52:32.396Z,68.30
2023-04-13T12:57:34.306Z,67.40
2023-04-13T13:02:36.486Z,66.10
2023-04-13T13:07:40.719Z,65.84
2023-04-13T13:12:42.495Z,66.77
2023-04-13T13:17:44.255Z,66.32
2023-04-13T13:22:47.240Z,65.06
2023-04-13T13:32:53.287Z,66.41
2023-04-13T13:37:57.306Z,66.94
2023-04-13T13:42:59.134Z,66.88
2023-04-13T13:48:04.963Z,65.90
2023-04-13T13:53:14.471Z,65.31
2023-04-13T13:58:17.214Z,65.23
2023-04-13T14:03:19.016Z,65.22
2023-04-13T14:08:20.761Z,65.48
2023-04-13T14:13:23.245Z,66.68
2023-04-13T14:18:25.005Z,66.26
2023-04-13T14:23:26.573Z,65.50
2023-04-13T14:28:28.133Z,62.92
2023-04-13T14:33:29.641Z,63.33
2023-04-13T14:38:31.173Z,62.47
2023-04-13T14:43:32.738Z,61.79
2023-04-13T14:48:34.262Z,61.26
2023-04-13T14:53:35.973Z,60.96
2023-04-13T14:58:37.634Z,58.91
2023-04-13T15:03:39.602Z,59.60
2023-04-13T15:08:41.503Z,60.15
2023-04-13T15:13:45.199Z,59.28
2023-04-13T15:18:46.799Z,60.24
2023-04-13T15:23:48.321Z,61.33
2023-04-13T15:28:49.862Z,60.63
2023-04-13T15:33:51.825Z,60.23
2023-04-13T15:38:53.692Z,60.58
2023-04-13T15:44:02.144Z,61.61
2023-04-13T15:49:03.804Z,61.56
2023-04-13T15:54:05.558Z,62.14
2023-04-13T15:59:07.156Z,63.37
2023-04-13T16:04:08.765Z,67.76
2023-04-13T16:09:10.731Z,75.12
2023-04-13T16:14:17.516Z,79.49
2023-04-13T16:19:20.969Z,80.77
2023-04-13T16:24:23.050Z,81.17
2023-04-13T16:29:24.871Z,81.88
2023-04-13T16:34:27.950Z,83.24
2023-04-13T16:39:29.488Z,84.61
2023-04-13T16:44:31.060Z,85.05
2023-04-13T16:49:33.494Z,85.81
2023-04-13T16:54:35.066Z,85.65
2023-04-13T16:59:36.577Z,85.15
2023-04-13T17:04:38.481Z,84.67
2023-04-13T17:09:40.022Z,83.29
2023-04-13T17:14:41.564Z,82.85
2023-04-13T17:19:43.217Z,82.00
2023-04-13T17:24:44.755Z,81.48
2023-04-13T17:29:46.351Z,78.05
2023-04-13T17:34:48.727Z,75.92
2023-04-13T17:39:51.427Z,75.13
2023-04-13T17:44:58.881Z,75.03
2023-04-13T17:50:00.739Z,74.45
2023-04-13T17:55:02.253Z,73.86
2023-04-13T18:00:04.249Z,74.22
2023-04-13T18:05:07.275Z,74.63
2023-04-13T18:10:09.357Z,74.98
2023-04-13T18:15:10.994Z,75.36
2023-04-13T18:20:12.629Z,75.34
2023-04-13T18:25:14.223Z,75.84
2023-04-13T18:30:28.917Z,75.75
2023-04-13T18:35:30.454Z,76.42
2023-04-13T18:40:34.427Z,77.17
2023-04-13T18:45:36.001Z,78.37
2023-04-13T18:50:38.289Z,80.30
2023-04-13T18:55:40.207Z,81.92
2023-04-13T19:00:41.761Z,83.20
2023-04-13T19:05:43.419Z,86.46
2023-04-13T19:10:45.098Z,88.27
2023-04-13T19:15:47.003Z,88.15
2023-04-13T19:20:49.825Z,89.06
2023-04-13T19:25:51.463Z,89.60
2023-04-13T19:30:53.009Z,90.41
2023-04-13T19:35:54.550Z,90.89
2023-04-13T19:40:57.660Z,91.69
2023-04-13T19:45:59.245Z,92.14
2023-04-13T19:51:01.254Z,93.03
2023-04-13T19:56:05.240Z,93.52
2023-04-13T20:01:07.817Z,94.06
2023-04-13T20:06:09.503Z,94.27
2023-04-13T20:11:14.347Z,94.84
2023-04-13T20:16:17.226Z,95.97
2023-04-13T20:21:18.783Z,95.67
2023-04-13T20:26:22.481Z,96.30
2023-04-13T20:31:28.944Z,96.44
2023-04-13T20:36:31.383Z,96.45
2023-04-13T20:41:34.837Z,97.26
2023-04-13T20:46:36.843Z,97.73
2023-04-13T20:51:39.710Z,97.82
2023-04-13T20:56:42.257Z,98.15
2023-04-13T21:01:44.163Z,98.99
2023-04-13T21:06:46.821Z,99.28
2023-04-13T21:11:48.428Z,99.50
2023-04-13T21:16:54.342Z,99.45
2023-04-13T21:21:57.468Z,100.00
2023-04-13T21:26:58.978Z,100.00
2023-04-13T21:32:02.287Z,100.00
2023-04-13T21:37:03.956Z,100.00
2023-04-13T21:42:05.658Z,100.00
2023-04-13T21:47:07.182Z,100.00
2023-04-13T21:52:09.636Z,100.00
2023-04-13T21:57:11.617Z,100.00
2023-04-13T22:02:13.194Z,100.00
2023-04-13T22:07:14.833Z,100.00
2023-04-13T22:12:16.532Z,100.00
2023-04-13T22:17:18.042Z,100.00
2023-04-13T22:22:19.637Z,100.00
2023-04-13T22:27:21.774Z,100.00
2023-04-13T22:32:23.472Z,100.00
2023-04-13T22:37:31.606Z,100.00
2023-04-13T22:42:33.162Z,100.00
2023-04-13T22:47:35.003Z,100.00
2023-04-13T22:52:36.682Z,100.00
2023-04-13T22:57:38.219Z,100.00
2023-04-13T23:02:40.831Z,100.00
2023-04-13T23:07:42.554Z,100.00
2023-04-13T23:12:44.152Z,100.00
2023-04-13T23:17:45.764Z,100.00
2023-04-13T23:22:47.931Z,100.00
2023-04-13T23:27:49.450Z,100.00
2023-04-13T23:32:51.128Z,100.00
2023-04-13T23:37:52.692Z,100.00
2023-04-13T23:42:59.152Z,100.00
2023-04-13T23:48:00.809Z,100.00
2023-04-13T23:53:02.489Z,100.00
2023-04-13T23:58:04.123Z,100.00
